createdAt,value
2018-12-25T00:00:34.740Z,0.73
2018-12-25T00:01:35.326Z,0.69
2018-12-25T00:02:35.907Z,0.66
2018-12-25T00:03:36.502Z,0.67
2018-12-25T00:04:37.086Z,0.69
2018-12-25T00:05:37.678Z,0.70
2018-12-25T00:06:38.268Z,0.64
2018-12-25T00:07:38.858Z,0.70
2018-12-25T00:08:39.448Z,0.69
2018-12-25T00:09:40.038Z,0.63
2018-12-25T00:10:40.632Z,0.67
2018-12-25T00:11:41.226Z,0.82
2018-12-25T00:12:41.815Z,0.77
2018-12-25T00:13:42.410Z,0.75
2018-12-25T00:14:43.002Z,0.78
2018-12-25T00:15:43.583Z,0.82
2018-12-25T00:16:44.180Z,0.84
2018-12-25T00:17:44.766Z,0.84
2018-12-25T00:18:45.352Z,0.78
2018-12-25T00:19:45.943Z,0.85
2018-12-25T00:20:46.532Z,0.82
2018-12-25T00:21:47.122Z,0.77
2018-12-25T00:22:47.705Z,0.80
2018-12-25T00:23:48.289Z,0.87
2018-12-25T00:24:48.877Z,0.85
2018-12-25T00:25:49.465Z,0.90
2018-12-25T00:26:50.062Z,0.90
2018-12-25T00:27:50.652Z,0.90
2018-12-25T00:28:51.245Z,0.85
2018-12-25T00:29:51.836Z,0.98
2018-12-25T00:30:52.427Z,0.98
2018-12-25T00:31:53.017Z,0.91
2018-12-25T00:32:53.610Z,0.91
2018-12-25T00:33:54.198Z,0.87
2018-12-25T00:34:54.782Z,0.88
2018-12-25T00:35:55.374Z,0.85
2018-12-25T00:36:55.960Z,0.93
2018-12-25T00:37:56.540Z,0.91
2018-12-25T00:38:57.136Z,0.95
2018-12-25T00:39:57.731Z,0.91
2018-12-25T00:40:58.319Z,0.91
2018-12-25T00:41:58.905Z,0.95
2018-12-25T00:42:59.503Z,0.91
2018-12-25T00:44:00.084Z,0.93
2018-12-25T00:45:00.676Z,0.99
2018-12-25T00:46:01.271Z,0.90
2018-12-25T00:47:01.864Z,0.91
2018-12-25T00:48:02.456Z,0.99
2018-12-25T00:49:03.047Z,0.90
2018-12-25T00:50:03.642Z,0.93
2018-12-25T00:51:04.235Z,0.98
2018-12-25T00:52:04.828Z,0.96
2018-12-25T00:53:05.420Z,0.98
2018-12-25T00:54:06.015Z,0.90
2018-12-25T00:55:06.646Z,0.81
2018-12-25T00:56:07.190Z,0.82
2018-12-25T00:57:07.775Z,0.95
2018-12-25T00:58:08.374Z,0.90
2018-12-25T00:59:08.965Z,0.88
2018-12-25T01:00:09.554Z,0.80
2018-12-25T01:01:10.158Z,0.98
2018-12-25T01:02:10.758Z,0.98
2018-12-25T01:03:11.341Z,0.87
2018-12-25T01:04:11.944Z,0.96
2018-12-25T01:05:12.527Z,0.99
2018-12-25T01:06:13.114Z,0.90
2018-12-25T01:07:13.709Z,0.84
2018-12-25T01:08:14.292Z,0.88
2018-12-25T01:09:14.885Z,0.90
2018-12-25T01:10:15.476Z,0.90
2018-12-25T01:11:16.077Z,0.95
2018-12-25T01:12:16.664Z,0.93
2018-12-25T01:13:17.258Z,0.95
2018-12-25T01:14:17.850Z,0.90
2018-12-25T01:15:18.440Z,1.00
2018-12-25T01:16:19.030Z,0.88
2018-12-25T01:17:19.619Z,0.95
2018-12-25T01:18:20.210Z,0.93
2018-12-25T01:19:23.418Z,1.09
2018-12-25T01:20:21.392Z,1.03
2018-12-25T01:21:21.979Z,0.99
2018-12-25T01:22:22.570Z,1.03
2018-12-25T01:23:23.157Z,1.06
2018-12-25T01:24:23.752Z,1.06
2018-12-25T01:25:24.345Z,1.06
2018-12-25T01:26:24.940Z,1.02
2018-12-25T01:27:25.523Z,1.03
2018-12-25T01:28:26.108Z,1.06
2018-12-25T01:29:26.703Z,1.09
2018-12-25T01:30:27.294Z,1.13
2018-12-25T01:31:27.882Z,1.14
2018-12-25T01:32:28.479Z,1.06
2018-12-25T01:33:29.059Z,1.13
2018-12-25T01:34:29.656Z,1.17
2018-12-25T01:35:30.252Z,1.16
2018-12-25T01:36:30.843Z,1.13
2018-12-25T01:37:31.436Z,1.13
2018-12-25T01:38:32.027Z,1.10
2018-12-25T01:39:32.619Z,1.14
2018-12-25T01:40:33.214Z,1.16
2018-12-25T01:41:33.807Z,1.16
2018-12-25T01:42:34.400Z,1.17
2018-12-25T01:43:34.994Z,1.09
2018-12-25T01:44:35.588Z,1.16
2018-12-25T01:45:36.181Z,1.16
2018-12-25T01:46:36.772Z,1.05
2018-12-25T01:47:37.366Z,1.14
2018-12-25T01:48:37.961Z,1.13
2018-12-25T01:49:38.542Z,1.13
2018-12-25T01:50:39.127Z,1.21
2018-12-25T01:51:39.711Z,1.18
2018-12-25T01:52:40.306Z,1.18
2018-12-25T01:53:40.896Z,1.26
2018-12-25T01:54:41.489Z,1.14
2018-12-25T01:55:42.081Z,1.24
2018-12-25T01:56:42.677Z,1.32
2018-12-25T01:57:43.273Z,1.34
2018-12-25T01:58:43.851Z,1.36
2018-12-25T01:59:44.441Z,1.36
2018-12-25T02:00:45.027Z,1.28
2018-12-25T02:01:45.613Z,1.38
2018-12-25T02:02:46.207Z,1.44
2018-12-25T02:03:46.801Z,1.45
2018-12-25T02:04:47.392Z,1.39
2018-12-25T02:05:47.984Z,1.42
2018-12-25T02:06:48.577Z,1.35
2018-12-25T02:07:49.170Z,1.46
2018-12-25T02:08:49.755Z,1.57
2018-12-25T02:09:50.350Z,1.52
2018-12-25T02:10:50.945Z,1.50
2018-12-25T02:11:51.538Z,1.50
2018-12-25T02:12:52.130Z,1.41
2018-12-25T02:13:52.721Z,1.45
2018-12-25T02:14:53.314Z,1.46
2018-12-25T02:15:53.907Z,1.48
2018-12-25T02:16:54.498Z,1.50
2018-12-25T02:17:55.089Z,1.45
2018-12-25T02:18:55.699Z,1.45
2018-12-25T02:19:56.279Z,1.52
2018-12-25T02:20:56.867Z,1.53
2018-12-25T02:21:57.453Z,1.53
2018-12-25T02:22:58.037Z,1.52
2018-12-25T02:23:58.633Z,1.53
2018-12-25T02:24:59.225Z,1.57
2018-12-25T02:25:59.819Z,1.56
2018-12-25T02:27:00.416Z,1.64
2018-12-25T02:28:01.005Z,1.62
2018-12-25T02:29:01.598Z,1.66
2018-12-25T02:30:02.189Z,1.63
2018-12-25T02:31:02.785Z,1.70
2018-12-25T02:32:03.376Z,1.63
2018-12-25T02:33:03.963Z,1.63
2018-12-25T02:34:04.560Z,1.62
2018-12-25T02:35:05.145Z,1.66
2018-12-25T02:36:05.741Z,1.64
2018-12-25T02:37:06.324Z,1.70
2018-12-25T02:38:06.917Z,1.70
2018-12-25T02:39:07.503Z,1.75
2018-12-25T02:40:08.095Z,1.63
2018-12-25T02:41:08.689Z,1.66
2018-12-25T02:42:09.277Z,1.81
2018-12-25T02:43:09.871Z,1.74
2018-12-25T02:44:10.459Z,1.72
2018-12-25T02:45:11.052Z,1.78
2018-12-25T02:46:11.645Z,1.70
2018-12-25T02:47:12.234Z,1.63
2018-12-25T02:48:12.820Z,1.80
2018-12-25T02:49:13.413Z,1.77
2018-12-25T02:50:14.015Z,1.74
2018-12-25T02:51:14.595Z,1.82
2018-12-25T02:52:15.182Z,1.80
2018-12-25T02:53:15.777Z,1.84
2018-12-25T02:54:16.361Z,1.77
2018-12-25T02:55:16.951Z,1.70
2018-12-25T02:56:17.541Z,1.64
2018-12-25T02:57:18.142Z,1.72
2018-12-25T02:58:18.722Z,1.72
2018-12-25T02:59:19.318Z,1.66
2018-12-25T03:00:19.907Z,1.64
2018-12-25T03:01:20.499Z,1.66
2018-12-25T03:02:21.095Z,1.80
2018-12-25T03:03:21.691Z,1.71
2018-12-25T03:04:22.283Z,1.75
2018-12-25T03:05:22.874Z,1.75
2018-12-25T03:06:23.468Z,1.85
2018-12-25T03:07:24.171Z,1.88
2018-12-25T03:08:24.646Z,1.77
2018-12-25T03:09:25.247Z,1.82
2018-12-25T03:10:25.834Z,1.84
2018-12-25T03:11:26.428Z,1.82
2018-12-25T03:12:27.012Z,1.81
2018-12-25T03:13:27.596Z,1.81
2018-12-25T03:14:28.185Z,1.84
2018-12-25T03:15:28.770Z,1.90
2018-12-25T03:16:29.357Z,1.92
2018-12-25T03:17:29.949Z,1.88
2018-12-25T03:18:30.536Z,1.97
2018-12-25T03:19:31.127Z,2.04
2018-12-25T03:20:31.719Z,1.97
2018-12-25T03:21:32.313Z,2.00
2018-12-25T03:22:32.899Z,2.12
2018-12-25T03:23:33.489Z,2.04
2018-12-25T03:24:34.082Z,2.07
2018-12-25T03:25:34.673Z,2.07
2018-12-25T03:26:35.264Z,2.09
2018-12-25T03:27:35.859Z,2.12
2018-12-25T03:28:36.454Z,2.12
2018-12-25T03:29:37.045Z,2.15
2018-12-25T03:30:37.646Z,2.15
2018-12-25T03:31:38.236Z,2.14
2018-12-25T03:32:38.826Z,2.12
2018-12-25T03:33:39.419Z,2.19
2018-12-25T03:34:40.004Z,2.22
2018-12-25T03:35:40.599Z,2.21
2018-12-25T03:36:41.193Z,2.25
2018-12-25T03:37:41.784Z,2.22
2018-12-25T03:38:42.377Z,2.14
2018-12-25T03:39:42.971Z,2.17
2018-12-25T03:40:43.548Z,2.15
2018-12-25T03:41:44.136Z,2.21
2018-12-25T03:42:44.733Z,2.18
2018-12-25T03:43:45.315Z,2.22
2018-12-25T03:44:45.910Z,2.26
2018-12-25T03:45:46.504Z,2.22
2018-12-25T03:46:47.102Z,2.21
2018-12-25T03:47:47.695Z,2.22
2018-12-25T03:48:48.293Z,2.19
2018-12-25T03:49:48.884Z,2.29
2018-12-25T03:50:49.479Z,2.33
2018-12-25T03:51:50.073Z,2.29
2018-12-25T03:52:50.668Z,2.26
2018-12-25T03:53:51.263Z,2.19
2018-12-25T03:54:51.860Z,2.15
2018-12-25T03:55:52.449Z,2.29
2018-12-25T03:56:53.034Z,2.39
2018-12-25T03:57:53.643Z,2.28
2018-12-25T03:58:54.218Z,2.33
2018-12-25T03:59:54.811Z,2.28
2018-12-25T04:00:55.405Z,2.29
2018-12-25T04:01:55.996Z,2.33
2018-12-25T04:02:56.586Z,2.29
2018-12-25T04:03:57.178Z,2.35
2018-12-25T04:04:57.772Z,2.32
2018-12-25T04:05:58.356Z,2.29
2018-12-25T04:06:58.952Z,2.30
2018-12-25T04:07:59.542Z,2.35
2018-12-25T04:09:00.135Z,2.35
2018-12-25T04:10:00.720Z,2.37
2018-12-25T04:11:01.317Z,2.40
2018-12-25T04:12:01.908Z,2.47
2018-12-25T04:13:02.500Z,2.44
2018-12-25T04:14:03.091Z,2.48
2018-12-25T04:15:03.684Z,2.44
2018-12-25T04:16:04.287Z,2.50
2018-12-25T04:17:04.862Z,2.47
2018-12-25T04:18:05.456Z,2.42
2018-12-25T04:19:06.042Z,2.51
2018-12-25T04:20:06.647Z,2.44
2018-12-25T04:21:07.230Z,2.37
2018-12-25T04:22:07.829Z,2.42
2018-12-25T04:23:08.423Z,2.37
2018-12-25T04:24:09.018Z,2.48
2018-12-25T04:25:09.613Z,2.48
2018-12-25T04:26:10.195Z,2.46
2018-12-25T04:27:10.791Z,2.55
2018-12-25T04:28:11.385Z,2.54
2018-12-25T04:29:11.979Z,2.54
2018-12-25T04:30:12.574Z,2.57
2018-12-25T04:31:13.170Z,2.55
2018-12-25T04:32:13.872Z,2.69
2018-12-25T04:33:14.347Z,2.54
2018-12-25T04:34:14.935Z,2.60
2018-12-25T04:35:15.528Z,2.65
2018-12-25T04:36:16.120Z,2.55
2018-12-25T04:37:16.717Z,2.60
2018-12-25T04:38:17.310Z,2.64
2018-12-25T04:39:17.903Z,2.58
2018-12-25T04:40:18.495Z,2.55
2018-12-25T04:41:19.076Z,2.55
2018-12-25T04:42:19.666Z,2.60
2018-12-25T04:43:20.260Z,2.58
2018-12-25T04:44:20.854Z,2.57
2018-12-25T04:45:21.446Z,2.55
2018-12-25T04:46:22.040Z,2.57
2018-12-25T04:47:22.634Z,2.60
2018-12-25T04:48:23.227Z,2.57
2018-12-25T04:49:23.824Z,2.68
2018-12-25T04:50:29.122Z,2.55
2018-12-25T04:51:25.003Z,2.58
2018-12-25T04:52:25.596Z,2.65
2018-12-25T04:53:26.187Z,2.65
2018-12-25T04:54:26.773Z,2.60
2018-12-25T04:55:27.376Z,2.66
2018-12-25T04:56:27.941Z,2.79
2018-12-25T04:57:28.528Z,2.72
2018-12-25T04:58:29.122Z,2.76
2018-12-25T04:59:29.710Z,2.76
2018-12-25T05:00:30.304Z,2.76
2018-12-25T05:01:30.898Z,2.84
2018-12-25T05:02:31.484Z,2.76
2018-12-25T05:03:32.072Z,2.84
2018-12-25T05:04:32.664Z,2.83
2018-12-25T05:05:33.259Z,2.78
2018-12-25T05:06:33.853Z,2.76
2018-12-25T05:07:34.479Z,2.75
2018-12-25T05:08:35.045Z,2.75
2018-12-25T05:09:35.638Z,2.76
2018-12-25T05:10:36.242Z,2.76
2018-12-25T05:11:36.830Z,2.76
2018-12-25T05:12:37.422Z,2.75
2018-12-25T05:13:38.014Z,2.79
2018-12-25T05:14:38.603Z,2.75
2018-12-25T05:15:39.197Z,2.82
2018-12-25T05:16:39.790Z,2.84
2018-12-25T05:17:40.384Z,2.84
2018-12-25T05:18:40.968Z,2.82
2018-12-25T05:19:41.564Z,2.87
2018-12-25T05:20:42.149Z,2.86
2018-12-25T05:21:42.743Z,2.83
2018-12-25T05:22:43.336Z,2.84
2018-12-25T05:23:43.929Z,2.90
2018-12-25T05:24:44.517Z,2.87
2018-12-25T05:25:45.111Z,2.89
2018-12-25T05:26:45.697Z,2.83
2018-12-25T05:27:46.289Z,2.90
2018-12-25T05:28:46.878Z,2.87
2018-12-25T05:29:47.461Z,2.91
2018-12-25T05:30:48.055Z,2.91
2018-12-25T05:31:48.640Z,2.94
2018-12-25T05:32:49.235Z,2.97
2018-12-25T05:33:49.828Z,2.97
2018-12-25T05:34:50.424Z,2.97
2018-12-25T05:35:51.014Z,2.94
2018-12-25T05:36:51.613Z,3.01
2018-12-25T05:37:52.200Z,2.97
2018-12-25T05:38:52.798Z,2.91
2018-12-25T05:39:53.381Z,2.91
2018-12-25T05:40:53.964Z,2.91
2018-12-25T05:41:54.553Z,3.01
2018-12-25T05:42:55.147Z,2.94
2018-12-25T05:43:55.742Z,2.93
2018-12-25T05:44:56.326Z,3.01
2018-12-25T05:45:56.914Z,2.96
2018-12-25T05:46:57.516Z,2.96
2018-12-25T05:47:58.104Z,3.00
2018-12-25T05:48:58.696Z,3.01
2018-12-25T05:49:59.291Z,3.01
2018-12-25T05:50:59.885Z,2.97
2018-12-25T05:52:00.481Z,2.94
2018-12-25T05:53:01.069Z,2.93
2018-12-25T05:54:01.668Z,3.09
2018-12-25T05:55:02.261Z,3.08
2018-12-25T05:56:02.857Z,3.09
2018-12-25T05:57:03.448Z,3.12
2018-12-25T05:58:04.040Z,3.15
2018-12-25T05:59:04.631Z,3.15
2018-12-25T06:00:05.229Z,3.15
2018-12-25T06:01:05.824Z,3.26
2018-12-25T06:02:06.424Z,3.26
2018-12-25T06:03:07.023Z,3.26
2018-12-25T06:04:07.600Z,3.22
2018-12-25T06:05:08.199Z,3.25
2018-12-25T06:06:08.790Z,3.25
2018-12-25T06:07:09.377Z,3.27
2018-12-25T06:08:09.977Z,3.22
2018-12-25T06:09:10.563Z,3.22
2018-12-25T06:10:11.162Z,3.27
2018-12-25T06:11:11.734Z,3.37
2018-12-25T06:12:12.321Z,3.35
2018-12-25T06:13:12.914Z,3.33
2018-12-25T06:14:13.510Z,3.32
2018-12-25T06:15:14.103Z,3.37
2018-12-25T06:16:14.696Z,3.26
2018-12-25T06:17:15.288Z,3.33
2018-12-25T06:18:15.884Z,3.39
2018-12-25T06:19:16.481Z,3.27
2018-12-25T06:20:17.075Z,3.33
2018-12-25T06:21:17.672Z,3.29
2018-12-25T06:22:18.265Z,3.25
2018-12-25T06:23:18.860Z,3.32
2018-12-25T06:24:19.455Z,3.30
2018-12-25T06:25:20.058Z,3.37
2018-12-25T06:26:20.651Z,3.32
2018-12-25T06:27:21.272Z,3.39
2018-12-25T06:28:21.849Z,3.39
2018-12-25T06:29:22.436Z,3.33
2018-12-25T06:30:23.029Z,3.33
2018-12-25T06:31:23.626Z,3.33
2018-12-25T06:32:24.218Z,3.33
2018-12-25T06:33:24.803Z,3.32
2018-12-25T06:34:25.402Z,3.44
2018-12-25T06:35:25.996Z,3.30
2018-12-25T06:36:26.593Z,3.30
2018-12-25T06:37:27.544Z,3.30
2018-12-25T06:38:28.039Z,3.29
2018-12-25T06:39:28.630Z,3.33
2018-12-25T06:40:29.219Z,3.33
2018-12-25T06:41:29.814Z,3.39
2018-12-25T06:42:30.399Z,3.30
2018-12-25T06:43:30.996Z,3.32
2018-12-25T06:44:31.583Z,3.35
2018-12-25T06:45:32.178Z,3.35
2018-12-25T06:46:32.766Z,3.42
2018-12-25T06:47:33.350Z,3.26
2018-12-25T06:48:33.946Z,3.35
2018-12-25T06:49:34.549Z,3.35
2018-12-25T06:50:35.138Z,3.32
2018-12-25T06:51:35.731Z,3.33
2018-12-25T06:52:36.332Z,3.32
2018-12-25T06:53:36.928Z,3.33
2018-12-25T06:54:39.366Z,3.32
2018-12-25T06:55:38.101Z,3.35
2018-12-25T06:56:38.695Z,3.35
2018-12-25T06:57:39.284Z,3.33
2018-12-25T06:58:39.870Z,3.29
2018-12-25T06:59:40.468Z,3.35
2018-12-25T07:00:41.062Z,3.35
2018-12-25T07:01:41.658Z,3.32
2018-12-25T07:02:42.245Z,3.32
2018-12-25T07:03:42.840Z,3.30
2018-12-25T07:04:43.434Z,3.29
2018-12-25T07:05:44.027Z,3.41
2018-12-25T07:06:44.624Z,3.42
2018-12-25T07:07:45.221Z,3.35
2018-12-25T07:08:45.811Z,3.46
2018-12-25T07:09:46.405Z,3.41
2018-12-25T07:10:47.004Z,3.48
2018-12-25T07:11:47.591Z,3.41
2018-12-25T07:12:48.183Z,3.41
2018-12-25T07:13:48.776Z,3.46
2018-12-25T07:14:49.371Z,3.48
2018-12-25T07:15:49.958Z,3.48
2018-12-25T07:16:50.558Z,3.46
2018-12-25T07:17:51.148Z,3.49
2018-12-25T07:18:51.735Z,3.44
2018-12-25T07:19:52.321Z,3.48
2018-12-25T07:20:52.910Z,3.49
2018-12-25T07:21:53.510Z,3.46
2018-12-25T07:22:54.109Z,3.52
2018-12-25T07:23:54.701Z,3.51
2018-12-25T07:24:55.298Z,3.51
2018-12-25T07:25:55.893Z,3.49
2018-12-25T07:26:56.483Z,3.49
2018-12-25T07:27:57.077Z,3.57
2018-12-25T07:28:57.673Z,3.48
2018-12-25T07:29:58.263Z,3.44
2018-12-25T07:30:58.860Z,3.49
2018-12-25T07:31:59.455Z,3.49
2018-12-25T07:33:00.055Z,3.46
2018-12-25T07:34:00.644Z,3.42
2018-12-25T07:35:01.230Z,3.46
2018-12-25T07:36:01.818Z,3.37
2018-12-25T07:37:02.416Z,3.37
2018-12-25T07:38:03.002Z,3.26
2018-12-25T07:39:03.601Z,3.32
2018-12-25T07:40:04.193Z,3.26
2018-12-25T07:41:04.787Z,3.35
2018-12-25T07:42:05.383Z,3.33
2018-12-25T07:43:05.974Z,3.25
2018-12-25T07:44:06.574Z,3.32
2018-12-25T07:45:07.168Z,3.29
2018-12-25T07:46:07.770Z,3.23
2018-12-25T07:47:08.363Z,3.15
2018-12-25T07:48:08.955Z,3.15
2018-12-25T07:49:09.551Z,3.15
2018-12-25T07:50:10.173Z,3.11
2018-12-25T07:51:10.746Z,3.17
2018-12-25T07:52:11.345Z,3.12
2018-12-25T07:53:11.940Z,3.09
2018-12-25T07:54:12.540Z,3.07
2018-12-25T07:55:13.128Z,3.05
2018-12-25T07:56:13.720Z,3.14
2018-12-25T07:57:14.316Z,3.04
2018-12-25T07:58:14.908Z,3.07
2018-12-25T07:59:15.498Z,3.01
2018-12-25T08:00:16.097Z,3.12
2018-12-25T08:01:16.698Z,3.17
2018-12-25T08:02:17.287Z,3.02
2018-12-25T08:03:17.887Z,3.08
2018-12-25T08:04:18.482Z,3.11
2018-12-25T08:05:19.078Z,3.12
2018-12-25T08:06:19.677Z,3.05
2018-12-25T08:07:20.275Z,3.07
2018-12-25T08:08:20.872Z,3.05
2018-12-25T08:09:21.463Z,3.12
2018-12-25T08:10:22.063Z,3.22
2018-12-25T08:11:22.658Z,3.26
2018-12-25T08:12:23.259Z,3.33
2018-12-25T08:13:23.860Z,3.29
2018-12-25T08:14:24.465Z,3.35
2018-12-25T08:15:25.064Z,3.39
2018-12-25T08:16:25.662Z,3.42
2018-12-25T08:17:26.265Z,3.46
2018-12-25T08:18:26.859Z,3.41
2018-12-25T08:19:27.455Z,3.57
2018-12-25T08:20:28.055Z,3.46
2018-12-25T08:21:29.357Z,3.55
2018-12-25T08:22:30.056Z,3.52
2018-12-25T08:23:30.656Z,3.64
2018-12-25T08:24:31.256Z,3.63
2018-12-25T08:25:31.854Z,3.63
2018-12-25T08:26:32.558Z,3.59
2018-12-25T08:27:33.047Z,3.60
2018-12-25T08:28:33.636Z,3.73
2018-12-25T08:29:34.233Z,3.67
2018-12-25T08:30:34.834Z,3.72
2018-12-25T08:31:35.431Z,3.77
2018-12-25T08:32:36.022Z,3.72
2018-12-25T08:33:36.621Z,3.73
2018-12-25T08:34:37.226Z,3.84
2018-12-25T08:35:37.813Z,3.75
2018-12-25T08:36:38.417Z,3.77
2018-12-25T08:37:39.006Z,3.78
2018-12-25T08:38:39.606Z,3.81
2018-12-25T08:39:40.203Z,3.81
2018-12-25T08:40:40.805Z,3.82
2018-12-25T08:41:41.396Z,3.82
2018-12-25T08:42:42.000Z,3.90
2018-12-25T08:43:42.595Z,3.90
2018-12-25T08:44:43.192Z,3.90
2018-12-25T08:45:43.783Z,3.95
2018-12-25T08:46:44.375Z,3.91
2018-12-25T08:47:44.975Z,3.91
2018-12-25T08:48:45.580Z,4.00
2018-12-25T08:49:46.176Z,3.98
2018-12-25T08:50:46.773Z,4.03
2018-12-25T08:51:47.380Z,4.03
2018-12-25T08:52:47.975Z,4.06
2018-12-25T08:53:48.586Z,4.08
2018-12-25T08:54:49.186Z,4.14
2018-12-25T08:55:49.785Z,4.18
2018-12-25T08:56:50.383Z,4.14
2018-12-25T08:57:50.979Z,4.21
2018-12-25T08:58:51.580Z,4.24
2018-12-25T08:59:52.188Z,4.35
2018-12-25T09:00:52.800Z,4.38
2018-12-25T09:01:53.386Z,4.39
2018-12-25T09:02:53.989Z,4.38
2018-12-25T09:03:54.586Z,4.46
2018-12-25T09:04:55.191Z,4.53
2018-12-25T09:05:55.792Z,4.62
2018-12-25T09:06:56.401Z,4.63
2018-12-25T09:07:56.994Z,4.68
2018-12-25T09:08:57.615Z,4.60
2018-12-25T09:09:58.195Z,4.64
2018-12-25T09:10:58.794Z,4.72
2018-12-25T09:11:59.388Z,4.56
2018-12-25T09:12:59.986Z,4.60
2018-12-25T09:14:00.586Z,4.71
2018-12-25T09:15:01.187Z,4.64
2018-12-25T09:16:01.774Z,4.72
2018-12-25T09:17:02.376Z,4.85
2018-12-25T09:18:02.976Z,4.78
2018-12-25T09:19:03.577Z,4.90
2018-12-25T09:20:04.176Z,4.91
2018-12-25T09:21:04.782Z,4.93
2018-12-25T09:22:05.391Z,4.99
2018-12-25T09:23:05.986Z,4.99
2018-12-25T09:24:06.699Z,4.99
2018-12-25T09:25:07.302Z,5.01
2018-12-25T09:26:07.904Z,5.08
2018-12-25T09:27:08.503Z,5.08
2018-12-25T09:28:09.110Z,5.04
2018-12-25T09:29:09.712Z,5.15
2018-12-25T09:30:10.310Z,5.19
2018-12-25T09:31:10.909Z,5.26
2018-12-25T09:32:11.516Z,5.16
2018-12-25T09:33:12.114Z,5.19
2018-12-25T09:34:12.713Z,5.27
2018-12-25T09:35:13.316Z,5.26
2018-12-25T09:36:13.918Z,5.36
2018-12-25T09:37:14.509Z,5.33
2018-12-25T09:38:15.136Z,5.44
2018-12-25T09:39:15.711Z,5.33
2018-12-25T09:40:16.313Z,5.48
2018-12-25T09:41:16.912Z,5.47
2018-12-25T09:42:17.507Z,5.52
2018-12-25T09:43:18.101Z,5.61
2018-12-25T09:44:18.694Z,5.63
2018-12-25T09:45:19.293Z,5.73
2018-12-25T09:46:19.901Z,5.76
2018-12-25T09:47:20.498Z,5.70
2018-12-25T09:48:21.098Z,5.69
2018-12-25T09:49:21.690Z,5.72
2018-12-25T09:50:22.292Z,5.68
2018-12-25T09:51:22.896Z,5.70
2018-12-25T09:52:23.495Z,5.83
2018-12-25T09:53:24.092Z,5.88
2018-12-25T09:54:24.692Z,5.91
2018-12-25T09:55:25.292Z,5.87
2018-12-25T09:56:25.892Z,6.08
2018-12-25T09:57:26.491Z,6.05
2018-12-25T09:58:27.092Z,6.05
2018-12-25T09:59:27.695Z,6.11
2018-12-25T10:00:28.290Z,6.08
2018-12-25T10:01:28.892Z,6.12
2018-12-25T10:02:29.494Z,6.13
2018-12-25T10:03:30.097Z,6.12
2018-12-25T10:04:30.694Z,6.12
2018-12-25T10:05:31.295Z,6.15
2018-12-25T10:06:31.892Z,6.31
2018-12-25T10:07:32.500Z,6.38
2018-12-25T10:08:33.099Z,6.49
2018-12-25T10:09:33.704Z,6.43
2018-12-25T10:10:34.304Z,6.52
2018-12-25T10:11:34.914Z,6.53
2018-12-25T10:12:35.517Z,6.55
2018-12-25T10:13:36.117Z,6.63
2018-12-25T10:14:36.721Z,6.63
2018-12-25T10:15:37.333Z,6.63
2018-12-25T10:16:37.927Z,6.67
2018-12-25T10:17:38.531Z,6.64
2018-12-25T10:18:39.131Z,6.68
2018-12-25T10:19:39.728Z,6.67
2018-12-25T10:20:40.333Z,6.58
2018-12-25T10:21:40.932Z,6.66
2018-12-25T10:22:41.540Z,6.63
2018-12-25T10:23:42.122Z,6.73
2018-12-25T10:24:42.724Z,6.60
2018-12-25T10:25:43.329Z,6.64
2018-12-25T10:26:43.923Z,6.75
2018-12-25T10:27:44.527Z,6.67
2018-12-25T10:28:45.136Z,6.70
2018-12-25T10:29:45.737Z,6.67
2018-12-25T10:30:46.340Z,6.71
2018-12-25T10:31:46.936Z,6.64
2018-12-25T10:32:47.531Z,6.81
2018-12-25T10:33:48.137Z,6.84
2018-12-25T10:34:48.739Z,6.85
2018-12-25T10:35:49.344Z,6.86
2018-12-25T10:36:49.945Z,6.85
2018-12-25T10:37:50.542Z,6.84
2018-12-25T10:38:51.143Z,6.82
2018-12-25T10:39:51.750Z,7.02
2018-12-25T10:40:52.342Z,6.97
2018-12-25T10:41:52.938Z,7.03
2018-12-25T10:42:53.541Z,7.02
2018-12-25T10:43:54.148Z,7.03
2018-12-25T10:44:54.743Z,7.14
2018-12-25T10:45:55.341Z,7.18
2018-12-25T10:46:55.936Z,7.14
2018-12-25T10:47:56.539Z,7.15
2018-12-25T10:48:57.146Z,7.14
2018-12-25T10:49:57.749Z,7.22
2018-12-25T10:50:58.349Z,7.22
2018-12-25T10:51:58.956Z,7.27
2018-12-25T10:52:59.558Z,7.33
2018-12-25T10:54:00.163Z,7.46
2018-12-25T10:55:00.767Z,7.42
2018-12-25T10:56:01.372Z,7.42
2018-12-25T10:57:01.965Z,7.45
2018-12-25T10:58:04.526Z,7.46
2018-12-25T10:59:04.158Z,7.54
2018-12-25T11:00:04.760Z,7.50
2018-12-25T11:01:05.361Z,7.50
2018-12-25T11:02:05.967Z,7.50
2018-12-25T11:03:06.570Z,7.46
2018-12-25T11:04:07.180Z,7.46
2018-12-25T11:05:07.783Z,7.50
2018-12-25T11:06:08.385Z,7.37
2018-12-25T11:07:08.995Z,7.45
2018-12-25T11:08:09.600Z,7.40
2018-12-25T11:09:10.203Z,7.32
2018-12-25T11:10:10.803Z,7.28
2018-12-25T11:11:11.410Z,7.25
2018-12-25T11:12:12.014Z,7.25
2018-12-25T11:13:12.611Z,7.14
2018-12-25T11:14:13.219Z,7.14
2018-12-25T11:15:13.823Z,7.12
2018-12-25T11:16:14.426Z,7.18
2018-12-25T11:17:15.024Z,7.21
2018-12-25T11:18:15.629Z,7.12
2018-12-25T11:19:16.232Z,7.21
2018-12-25T11:20:16.824Z,7.33
2018-12-25T11:21:17.432Z,7.33
2018-12-25T11:22:20.001Z,7.25
2018-12-25T11:23:18.638Z,7.35
2018-12-25T11:24:19.240Z,7.32
2018-12-25T11:25:19.842Z,7.24
2018-12-25T11:26:20.448Z,7.12
2018-12-25T11:27:21.058Z,7.12
2018-12-25T11:28:21.657Z,7.29
2018-12-25T11:29:22.256Z,7.35
2018-12-25T11:30:22.861Z,7.37
2018-12-25T11:31:23.464Z,7.36
2018-12-25T11:32:24.067Z,7.45
2018-12-25T11:33:24.662Z,7.45
2018-12-25T11:34:25.266Z,7.40
2018-12-25T11:35:25.867Z,7.54
2018-12-25T11:36:26.469Z,7.79
2018-12-25T11:37:27.077Z,7.91
2018-12-25T11:38:27.677Z,8.09
2018-12-25T11:39:28.280Z,8.19
2018-12-25T11:40:28.877Z,8.27
2018-12-25T11:41:29.482Z,8.48
2018-12-25T11:42:30.087Z,8.82
2018-12-25T11:43:30.696Z,9.12
2018-12-25T11:44:31.291Z,9.32
2018-12-25T11:45:31.896Z,9.56
2018-12-25T11:46:32.497Z,9.56
2018-12-25T11:47:33.095Z,9.36
2018-12-25T11:48:33.702Z,9.19
2018-12-25T11:49:34.308Z,8.93
2018-12-25T11:50:34.904Z,8.93
2018-12-25T11:51:35.499Z,8.89
2018-12-25T11:52:36.098Z,8.96
2018-12-25T11:53:36.704Z,8.93
2018-12-25T11:54:37.305Z,8.89
2018-12-25T11:55:37.910Z,8.77
2018-12-25T11:56:38.515Z,8.70
2018-12-25T11:57:39.118Z,8.70
2018-12-25T11:58:39.718Z,8.77
2018-12-25T11:59:40.313Z,8.66
2018-12-25T12:00:40.909Z,8.56
2018-12-25T12:01:41.514Z,8.53
2018-12-25T12:02:42.117Z,8.63
2018-12-25T12:03:42.716Z,8.56
2018-12-25T12:04:43.321Z,8.56
2018-12-25T12:05:43.916Z,8.49
2018-12-25T12:06:44.512Z,8.41
2018-12-25T12:07:45.108Z,8.35
2018-12-25T12:08:45.714Z,8.38
2018-12-25T12:09:46.318Z,8.28
2018-12-25T12:10:46.919Z,8.15
2018-12-25T12:11:47.513Z,8.06
2018-12-25T12:12:48.115Z,8.01
2018-12-25T12:13:48.719Z,7.95
2018-12-25T12:14:49.323Z,7.83
2018-12-25T12:15:49.928Z,7.70
2018-12-25T12:16:50.530Z,7.57
2018-12-25T12:17:51.135Z,7.54
2018-12-25T12:18:51.738Z,7.42
2018-12-25T12:19:52.340Z,7.40
2018-12-25T12:20:52.941Z,7.40
2018-12-25T12:21:53.547Z,7.36
2018-12-25T12:22:54.150Z,7.45
2018-12-25T12:23:54.752Z,7.36
2018-12-25T12:24:55.358Z,7.42
2018-12-25T12:25:55.961Z,7.33
2018-12-25T12:26:56.562Z,7.32
2018-12-25T12:27:57.168Z,7.32
2018-12-25T12:28:57.760Z,7.28
2018-12-25T12:29:58.365Z,7.35
2018-12-25T12:30:58.963Z,7.35
2018-12-25T12:31:59.570Z,7.28
2018-12-25T12:33:00.172Z,7.28
2018-12-25T12:34:00.765Z,7.35
2018-12-25T12:35:01.374Z,7.32
2018-12-25T12:36:01.974Z,7.32
2018-12-25T12:37:02.578Z,7.37
2018-12-25T12:38:03.189Z,7.45
2018-12-25T12:39:03.800Z,7.40
2018-12-25T12:40:04.387Z,7.39
2018-12-25T12:41:04.999Z,7.37
2018-12-25T12:42:05.593Z,7.42
2018-12-25T12:43:06.193Z,7.42
2018-12-25T12:44:06.794Z,7.29
2018-12-25T12:45:07.395Z,7.32
2018-12-25T12:46:07.993Z,7.27
2018-12-25T12:47:08.589Z,7.22
2018-12-25T12:48:09.193Z,7.25
2018-12-25T12:49:09.790Z,7.18
2018-12-25T12:50:10.398Z,7.22
2018-12-25T12:51:10.997Z,7.14
2018-12-25T12:52:11.599Z,7.25
2018-12-25T12:53:12.207Z,7.18
2018-12-25T12:54:12.811Z,7.15
2018-12-25T12:55:13.419Z,7.03
2018-12-25T12:56:14.017Z,7.00
2018-12-25T12:57:14.619Z,7.02
2018-12-25T12:58:15.225Z,7.00
2018-12-25T12:59:15.831Z,6.96
2018-12-25T13:00:16.426Z,7.10
2018-12-25T13:01:17.028Z,7.12
2018-12-25T13:02:17.644Z,7.14
2018-12-25T13:03:18.230Z,7.12
2018-12-25T13:04:18.833Z,7.19
2018-12-25T13:05:19.434Z,7.10
2018-12-25T13:06:20.039Z,7.10
2018-12-25T13:07:20.641Z,7.14
2018-12-25T13:08:21.256Z,7.00
2018-12-25T13:09:21.836Z,7.00
2018-12-25T13:10:22.441Z,6.97
2018-12-25T13:11:23.043Z,7.04
2018-12-25T13:12:23.639Z,7.02
2018-12-25T13:13:24.240Z,7.02
2018-12-25T13:14:24.836Z,6.86
2018-12-25T13:15:25.443Z,6.92
2018-12-25T13:16:26.051Z,6.86
2018-12-25T13:17:26.662Z,6.94
2018-12-25T13:18:27.268Z,6.96
2018-12-25T13:19:27.870Z,7.00
2018-12-25T13:20:28.473Z,7.02
2018-12-25T13:21:29.071Z,6.97
2018-12-25T13:22:29.756Z,6.89
2018-12-25T13:23:30.266Z,6.84
2018-12-25T13:24:30.871Z,6.76
2018-12-25T13:25:31.464Z,6.70
2018-12-25T13:26:32.067Z,6.64